createdAt,value
2018-12-17T00:00:20.760Z,89.33
2018-12-17T00:01:50.790Z,89.83
2018-12-17T00:03:20.697Z,88.74
2018-12-17T00:04:50.578Z,88.73
2018-12-17T00:06:20.460Z,88.88
2018-12-17T00:07:50.376Z,90.05
2018-12-17T00:09:20.414Z,88.94
2018-12-17T00:10:50.307Z,88.16
2018-12-17T00:12:20.218Z,89.06
2018-12-17T00:13:50.121Z,88.29
2018-12-17T00:15:20.106Z,88.62
2018-12-17T00:16:50.018Z,88.66
2018-12-17T00:18:19.898Z,88.94
2018-12-17T00:19:49.787Z,87.69
2018-12-17T00:21:19.679Z,88.22
2018-12-17T00:22:49.589Z,87.24
2018-12-17T00:24:19.466Z,87.76
2018-12-17T00:28:13.231Z,88.09
2018-12-17T00:29:43.112Z,88.85
2018-12-17T00:31:13.011Z,88.68
2018-12-17T00:32:42.916Z,89.28
2018-12-17T00:34:12.794Z,88.34
2018-12-17T00:35:42.682Z,87.55
2018-12-17T00:37:12.594Z,88.74
2018-12-17T00:38:42.474Z,88.92
2018-12-17T00:40:12.729Z,88.46
2018-12-17T00:41:42.636Z,88.17
2018-12-17T00:43:12.524Z,88.19
2018-12-17T00:44:42.410Z,88.72
2018-12-17T00:46:12.419Z,88.76
2018-12-17T00:47:42.336Z,88.87
2018-12-17T00:49:12.217Z,88.38
2018-12-17T00:50:42.214Z,88.57
2018-12-17T00:52:12.102Z,89.70
2018-12-17T00:53:41.987Z,90.12
2018-12-17T00:55:12.302Z,89.04
2018-12-17T00:56:42.187Z,89.33
2018-12-17T00:58:15.114Z,89.60
2018-12-17T00:59:43.970Z,90.07
2018-12-17T01:01:13.869Z,89.44
2018-12-17T01:02:43.877Z,89.17
2018-12-17T01:04:13.810Z,89.07
2018-12-17T01:05:43.813Z,89.74
2018-12-17T01:07:13.712Z,89.69
2018-12-17T01:08:43.787Z,90.00
2018-12-17T01:10:13.841Z,89.99
2018-12-17T01:11:43.735Z,89.54
2018-12-17T01:13:13.656Z,89.51
2018-12-17T01:14:43.646Z,89.10
2018-12-17T01:16:13.671Z,89.13
2018-12-17T01:17:43.590Z,89.35
2018-12-17T01:19:13.603Z,88.01
2018-12-17T01:20:43.510Z,88.30
2018-12-17T01:22:13.402Z,87.63
2018-12-17T01:23:43.519Z,88.60
2018-12-17T01:25:13.418Z,88.10
2018-12-17T01:26:43.304Z,87.70
2018-12-17T01:28:13.305Z,88.13
2018-12-17T01:29:43.215Z,87.55
2018-12-17T01:31:13.110Z,88.48
2018-12-17T01:32:43.143Z,88.73
2018-12-17T01:34:13.024Z,89.14
2018-12-17T01:35:42.910Z,89.32
2018-12-17T01:37:20.146Z,88.72
2018-12-17T01:38:50.032Z,89.35
2018-12-17T01:40:19.925Z,88.49
2018-12-17T01:41:49.804Z,87.97
2018-12-17T01:43:19.739Z,88.91
2018-12-17T01:44:49.616Z,88.94
2018-12-17T01:46:19.518Z,88.82
2018-12-17T01:47:49.421Z,88.69
2018-12-17T01:49:19.542Z,87.90
2018-12-17T01:50:49.435Z,88.53
2018-12-17T01:52:19.441Z,87.13
2018-12-17T01:53:49.331Z,87.55
2018-12-17T01:55:19.224Z,88.12
2018-12-17T01:56:49.096Z,87.99
2018-12-17T01:58:18.983Z,88.26
2018-12-17T01:59:48.883Z,87.41
2018-12-17T02:01:18.767Z,87.15
2018-12-17T02:02:48.888Z,87.01
2018-12-17T02:04:18.897Z,87.09
2018-12-17T02:05:48.785Z,88.10
2018-12-17T02:07:18.679Z,86.90
2018-12-17T02:08:48.702Z,86.85
2018-12-17T02:10:18.599Z,86.30
2018-12-17T02:11:48.475Z,86.72
2018-12-17T02:13:18.359Z,87.09
2018-12-17T02:14:48.263Z,86.91
2018-12-17T02:16:18.373Z,86.65
2018-12-17T02:17:48.411Z,86.98
2018-12-17T02:19:18.322Z,87.71
2018-12-17T02:20:48.239Z,86.32
2018-12-17T02:22:18.142Z,87.00
2018-12-17T02:23:48.134Z,87.06
2018-12-17T02:25:18.138Z,87.41
2018-12-17T02:26:48.034Z,86.42
2018-12-17T02:28:17.930Z,86.51
2018-12-17T02:29:47.832Z,86.47
2018-12-17T02:31:18.142Z,86.86
2018-12-17T02:32:48.045Z,87.25
2018-12-17T02:34:17.934Z,86.83
2018-12-17T02:35:48.031Z,87.01
2018-12-17T02:37:17.927Z,86.86
2018-12-17T02:38:47.823Z,86.77
2018-12-17T02:40:17.818Z,87.25
2018-12-17T02:41:47.826Z,87.66
2018-12-17T02:43:17.716Z,87.26
2018-12-17T02:44:47.735Z,87.00
2018-12-17T02:46:28.046Z,86.56
2018-12-17T02:47:57.938Z,87.45
2018-12-17T02:49:52.646Z,87.17
2018-12-17T02:51:22.550Z,86.57
2018-12-17T02:52:52.441Z,87.71
2018-12-17T02:54:22.340Z,87.92
2018-12-17T02:55:52.231Z,87.48
2018-12-17T02:57:22.161Z,87.58
2018-12-17T02:58:52.132Z,87.50
2018-12-17T03:00:22.047Z,88.17
2018-12-17T03:01:52.135Z,88.28
2018-12-17T03:03:22.043Z,87.91
2018-12-17T03:04:52.285Z,87.24
2018-12-17T03:06:22.395Z,87.95
2018-12-17T03:07:52.295Z,87.68
2018-12-17T03:09:22.694Z,88.85
2018-12-17T03:10:52.733Z,88.05
2018-12-17T03:12:22.755Z,88.41
2018-12-17T03:13:52.634Z,88.79
2018-12-17T03:15:22.548Z,88.60
2018-12-17T03:16:52.447Z,87.65
2018-12-17T03:18:22.377Z,88.14
2018-12-17T03:19:52.479Z,87.73
2018-12-17T03:21:22.516Z,88.13
2018-12-17T03:22:52.399Z,88.17
2018-12-17T03:24:22.534Z,86.54
2018-12-17T03:25:52.548Z,86.97
2018-12-17T03:27:22.432Z,87.27
2018-12-17T03:28:52.394Z,87.75
2018-12-17T03:30:22.472Z,87.51
2018-12-17T03:31:52.700Z,87.51
2018-12-17T03:33:22.593Z,87.17
2018-12-17T03:34:52.495Z,87.29
2018-12-17T03:36:22.411Z,88.10
2018-12-17T03:37:52.303Z,87.29
2018-12-17T03:39:22.189Z,86.97
2018-12-17T03:40:52.364Z,87.23
2018-12-17T03:42:22.350Z,87.40
2018-12-17T03:43:52.237Z,87.81
2018-12-17T03:45:22.254Z,88.05
2018-12-17T03:46:52.152Z,87.48
2018-12-17T03:48:22.035Z,87.18
2018-12-17T03:49:51.915Z,87.59
2018-12-17T03:51:21.937Z,88.74
2018-12-17T03:52:51.826Z,88.26
2018-12-17T03:54:21.731Z,87.84
2018-12-17T03:55:51.618Z,88.30
2018-12-17T03:57:21.500Z,88.04
2018-12-17T03:58:59.084Z,88.85
2018-12-17T04:00:23.565Z,88.85
2018-12-17T04:01:53.470Z,89.47
2018-12-17T04:03:23.476Z,89.05
2018-12-17T04:04:53.683Z,89.38
2018-12-17T04:06:23.593Z,88.56
2018-12-17T04:07:53.600Z,89.75
2018-12-17T04:09:23.487Z,89.80
2018-12-17T04:10:53.393Z,89.05
2018-12-17T04:12:23.494Z,89.20
2018-12-17T04:13:53.394Z,88.83
2018-12-17T04:15:23.494Z,88.58
2018-12-17T04:16:53.402Z,88.31
2018-12-17T04:18:23.398Z,89.27
2018-12-17T04:19:53.287Z,88.47
2018-12-17T04:21:26.230Z,89.70
2018-12-17T04:22:56.122Z,88.64
2018-12-17T04:24:26.006Z,88.16
2018-12-17T04:25:56.019Z,88.10
2018-12-17T04:27:25.916Z,88.47
2018-12-17T04:28:55.898Z,88.27
2018-12-17T04:30:25.908Z,88.22
2018-12-17T04:31:55.923Z,87.33
2018-12-17T04:33:25.825Z,86.76
2018-12-17T04:34:56.066Z,87.32
2018-12-17T04:36:25.976Z,88.07
2018-12-17T04:37:55.978Z,86.91
2018-12-17T04:39:25.855Z,87.15
2018-12-17T04:40:55.878Z,87.35
2018-12-17T04:42:25.823Z,87.60
2018-12-17T04:43:55.788Z,88.62
2018-12-17T04:45:25.691Z,88.06
2018-12-17T04:46:55.606Z,87.89
2018-12-17T04:48:25.494Z,89.19
2018-12-17T04:49:55.509Z,88.84
2018-12-17T04:51:25.667Z,88.81
2018-12-17T04:52:55.565Z,89.79
2018-12-17T04:54:25.608Z,88.33
2018-12-17T04:55:55.628Z,88.27
2018-12-17T04:57:25.544Z,88.75
2018-12-17T04:58:55.538Z,87.71
2018-12-17T05:00:25.663Z,87.66
2018-12-17T05:01:55.707Z,87.50
2018-12-17T05:03:25.595Z,88.17
2018-12-17T05:04:55.488Z,86.73
2018-12-17T05:06:25.500Z,87.54
2018-12-17T05:07:55.618Z,86.92
2018-12-17T05:09:25.516Z,87.05
2018-12-17T05:10:55.564Z,87.25
2018-12-17T05:12:25.555Z,87.16
2018-12-17T05:13:55.439Z,88.28
2018-12-17T05:15:25.329Z,87.78
2018-12-17T05:16:55.319Z,88.46
2018-12-17T05:18:25.306Z,87.10
2018-12-17T05:19:55.299Z,87.57
2018-12-17T05:21:25.218Z,87.92
2018-12-17T05:22:55.111Z,87.60
2018-12-17T05:24:25.001Z,88.07
2018-12-17T05:25:54.899Z,87.23
2018-12-17T05:27:24.808Z,87.47
2018-12-17T05:28:54.888Z,88.42
2018-12-17T05:30:24.782Z,87.69
2018-12-17T05:31:54.932Z,87.33
2018-12-17T05:33:25.067Z,87.83
2018-12-17T05:34:55.022Z,88.72
2018-12-17T05:36:24.959Z,88.58
2018-12-17T05:37:55.006Z,88.00
2018-12-17T05:39:24.894Z,87.68
2018-12-17T05:40:55.355Z,89.20
2018-12-17T05:42:25.251Z,88.76
2018-12-17T05:43:55.144Z,89.30
2018-12-17T05:45:25.168Z,88.98
2018-12-17T05:46:55.096Z,88.67
2018-12-17T05:48:25.087Z,88.33
2018-12-17T05:49:54.993Z,88.97
2018-12-17T05:51:24.881Z,87.82
2018-12-17T05:52:55.131Z,88.35
2018-12-17T05:54:25.118Z,87.23
2018-12-17T05:55:55.039Z,88.13
2018-12-17T05:57:24.940Z,87.61
2018-12-17T05:58:54.819Z,87.69
2018-12-17T06:00:24.935Z,87.17
2018-12-17T06:01:54.854Z,87.26
2018-12-17T06:03:24.768Z,87.49
2018-12-17T06:04:54.659Z,88.01
2018-12-17T06:06:24.687Z,86.60
2018-12-17T06:07:54.575Z,87.33
2018-12-17T06:09:24.688Z,87.70
2018-12-17T06:10:54.604Z,88.57
2018-12-17T06:12:24.492Z,88.05
2018-12-17T06:13:54.515Z,88.99
2018-12-17T06:15:24.411Z,88.73
2018-12-17T06:16:54.323Z,87.82
2018-12-17T06:18:24.198Z,87.75
2018-12-17T06:20:01.395Z,87.89
2018-12-17T06:21:31.291Z,88.51
2018-12-17T06:23:01.302Z,88.44
2018-12-17T06:24:31.182Z,88.46
2018-12-17T06:26:01.192Z,89.69
2018-12-17T06:27:36.735Z,88.19
2018-12-17T06:29:03.117Z,88.90
2018-12-17T06:30:33.123Z,88.30
2018-12-17T06:32:03.123Z,89.57
2018-12-17T06:33:33.006Z,89.30
2018-12-17T06:35:03.355Z,90.04
2018-12-17T06:36:33.278Z,88.86
2018-12-17T06:38:03.279Z,89.37
2018-12-17T06:39:33.263Z,89.27
2018-12-17T06:41:03.162Z,88.15
2018-12-17T06:42:33.067Z,88.09
2018-12-17T06:44:03.678Z,88.78
2018-12-17T06:45:33.692Z,88.94
2018-12-17T06:47:03.642Z,88.11
2018-12-17T06:48:33.536Z,87.96
2018-12-17T06:50:04.580Z,87.97
2018-12-17T06:51:34.719Z,88.76
2018-12-17T06:53:04.586Z,88.75
2018-12-17T06:54:34.605Z,88.77
2018-12-17T06:56:04.628Z,87.89
2018-12-17T06:57:34.544Z,88.22
2018-12-17T06:59:04.557Z,88.17
2018-12-17T07:00:38.420Z,87.21
2018-12-17T07:02:08.653Z,87.68
2018-12-17T07:03:38.535Z,87.90
2018-12-17T07:05:08.540Z,87.44
2018-12-17T07:06:38.547Z,87.47
2018-12-17T07:08:08.439Z,87.51
2018-12-17T07:09:38.334Z,87.10
2018-12-17T07:11:08.218Z,87.90
2018-12-17T07:12:38.110Z,86.83
2018-12-17T07:14:08.003Z,87.24
2018-12-17T07:15:37.903Z,87.84
2018-12-17T07:17:07.816Z,87.47
2018-12-17T07:18:37.815Z,88.29
2018-12-17T07:20:07.969Z,87.29
2018-12-17T07:21:37.890Z,88.00
2018-12-17T07:23:07.802Z,87.39
2018-12-17T07:24:37.694Z,87.69
2018-12-17T07:26:07.699Z,88.09
2018-12-17T07:27:37.635Z,88.07
2018-12-17T07:29:07.539Z,87.88
2018-12-17T07:30:37.433Z,87.58
2018-12-17T07:32:07.464Z,87.51
2018-12-17T07:33:37.466Z,87.29
2018-12-17T07:35:07.478Z,87.82
2018-12-17T07:36:37.626Z,89.30
2018-12-17T07:38:07.527Z,88.84
2018-12-17T07:39:37.559Z,88.29
2018-12-17T07:41:07.476Z,87.81
2018-12-17T07:42:37.390Z,88.61
2018-12-17T07:44:07.296Z,87.64
2018-12-17T07:45:37.211Z,88.03
2018-12-17T07:47:07.115Z,88.25
2018-12-17T07:48:40.164Z,86.95
2018-12-17T07:50:10.090Z,87.93
2018-12-17T07:51:40.109Z,87.29
2018-12-17T07:53:10.329Z,86.99
2018-12-17T07:54:47.822Z,86.88
2018-12-17T07:56:17.799Z,86.79
2018-12-17T07:57:47.704Z,86.21
2018-12-17T07:59:17.620Z,87.24
2018-12-17T08:00:47.558Z,87.57
2018-12-17T08:02:17.534Z,87.24
2018-12-17T08:03:47.441Z,87.41
2018-12-17T08:05:17.386Z,85.96
2018-12-17T08:06:53.058Z,87.33
2018-12-17T08:08:22.959Z,86.52
2018-12-17T08:09:52.876Z,87.14
2018-12-17T08:11:22.864Z,86.57
2018-12-17T08:12:52.909Z,86.60
2018-12-17T08:14:22.829Z,87.31
2018-12-17T08:15:52.879Z,88.39
2018-12-17T08:17:22.936Z,88.17
2018-12-17T08:18:52.871Z,88.59
2018-12-17T08:20:22.805Z,88.65
2018-12-17T08:21:52.751Z,88.79
2018-12-17T08:23:22.689Z,88.51
2018-12-17T08:24:52.599Z,88.59
2018-12-17T08:26:22.544Z,88.12
2018-12-17T08:27:52.513Z,87.99
2018-12-17T08:29:22.460Z,89.62
2018-12-17T08:30:52.510Z,90.02
2018-12-17T08:32:22.475Z,90.70
2018-12-17T08:33:52.476Z,90.95
2018-12-17T08:35:22.394Z,91.19
2018-12-17T08:36:52.526Z,93.84
2018-12-17T08:38:22.439Z,92.69
2018-12-17T08:39:52.440Z,93.25
2018-12-17T08:41:22.362Z,93.44
2018-12-17T08:42:53.207Z,92.74
2018-12-17T08:44:23.179Z,92.54
2018-12-17T08:45:54.059Z,92.37
2018-12-17T08:47:24.011Z,92.80
2018-12-17T08:48:53.969Z,91.33
2018-12-17T08:50:24.025Z,91.48
2018-12-17T08:51:53.978Z,90.80
2018-12-17T08:53:23.934Z,91.67
2018-12-17T08:54:54.013Z,91.91
2018-12-17T08:56:23.956Z,91.05
2018-12-17T08:57:53.915Z,90.54
2018-12-17T08:59:23.978Z,91.20
2018-12-17T09:00:54.015Z,90.43
2018-12-17T09:02:24.097Z,90.03
2018-12-17T09:03:54.006Z,90.03
2018-12-17T09:05:23.928Z,90.24
2018-12-17T09:06:53.850Z,89.83
2018-12-17T09:08:23.838Z,88.59
2018-12-17T09:09:53.731Z,89.11
2018-12-17T09:11:23.655Z,89.05
2018-12-17T09:12:53.672Z,87.87
2018-12-17T09:14:23.563Z,88.71
2018-12-17T09:15:53.549Z,87.95
2018-12-17T09:17:23.445Z,87.25
2018-12-17T09:18:53.326Z,88.15
2018-12-17T09:20:23.337Z,88.01
2018-12-17T09:21:53.432Z,87.55
2018-12-17T09:23:23.471Z,86.83
2018-12-17T09:24:53.487Z,86.60
2018-12-17T09:26:23.391Z,87.11
2018-12-17T09:27:53.305Z,86.77
2018-12-17T09:29:23.312Z,85.14
2018-12-17T09:30:53.234Z,85.83
2018-12-17T09:32:23.134Z,86.03
2018-12-17T09:33:53.047Z,86.79
2018-12-17T09:35:23.075Z,86.14
2018-12-17T09:36:53.028Z,86.75
2018-12-17T09:38:22.934Z,85.49
2018-12-17T09:39:52.972Z,86.70
2018-12-17T09:41:23.285Z,86.12
2018-12-17T09:42:53.250Z,86.16
2018-12-17T09:44:23.395Z,86.42
2018-12-17T09:45:53.287Z,86.23
2018-12-17T09:47:23.332Z,86.24
2018-12-17T09:48:53.360Z,85.60
2018-12-17T09:50:23.362Z,85.55
2018-12-17T09:51:53.260Z,85.31
2018-12-17T09:53:23.318Z,84.87
2018-12-17T09:54:53.227Z,85.62
2018-12-17T09:56:23.242Z,85.26
2018-12-17T09:57:53.152Z,86.32
2018-12-17T09:59:23.171Z,85.94
2018-12-17T10:00:53.070Z,85.51
2018-12-17T10:02:22.982Z,85.61
2018-12-17T10:03:52.882Z,86.58
2018-12-17T10:05:22.828Z,85.78
2018-12-17T10:06:52.760Z,85.87
2018-12-17T10:08:22.755Z,85.56
2018-12-17T10:09:52.710Z,85.93
2018-12-17T10:11:22.692Z,85.09
2018-12-17T10:12:52.634Z,84.18
2018-12-17T10:14:22.704Z,85.43
2018-12-17T10:15:52.695Z,84.60
2018-12-17T10:17:22.666Z,84.31
2018-12-17T10:18:52.622Z,84.10
2018-12-17T10:20:22.656Z,83.62
2018-12-17T10:21:52.841Z,83.79
2018-12-17T10:23:22.774Z,85.15
2018-12-17T10:27:24.920Z,84.95
2018-12-17T10:32:00.392Z,84.74
2018-12-17T10:33:30.345Z,83.74
2018-12-17T10:35:13.281Z,84.64
2018-12-17T10:36:43.353Z,84.42
2018-12-17T10:38:13.411Z,84.91
2018-12-17T10:39:43.349Z,85.23
2018-12-17T10:41:13.279Z,84.28
2018-12-17T10:42:43.233Z,85.41
2018-12-17T10:44:13.288Z,84.39
2018-12-17T10:45:43.338Z,85.16
2018-12-17T10:47:13.339Z,84.81
2018-12-17T10:48:43.353Z,84.79
2018-12-17T10:50:13.255Z,85.32
2018-12-17T10:51:43.299Z,84.27
2018-12-17T10:53:13.211Z,84.33
2018-12-17T10:54:43.154Z,85.05
2018-12-17T10:56:13.047Z,85.23
2018-12-17T10:57:42.951Z,84.58
2018-12-17T10:59:12.863Z,84.30
2018-12-17T11:00:48.654Z,83.28
2018-12-17T11:02:25.947Z,83.21
2018-12-17T11:04:02.495Z,84.51
2018-12-17T11:05:32.920Z,83.47
2018-12-17T11:07:03.462Z,83.78
2018-12-17T11:08:33.393Z,83.65
2018-12-17T11:12:54.567Z,81.86
2018-12-17T11:14:24.715Z,81.99
2018-12-17T11:15:54.763Z,81.77
2018-12-17T11:17:24.698Z,82.07
2018-12-17T11:18:54.619Z,82.54
2018-12-17T11:20:24.558Z,81.82
2018-12-17T11:21:54.588Z,81.72
2018-12-17T11:23:24.615Z,80.42
2018-12-17T11:24:54.519Z,80.24
2018-12-17T11:26:24.435Z,80.75
2018-12-17T11:27:54.379Z,81.90
2018-12-17T11:29:24.306Z,80.85
2018-12-17T11:30:54.213Z,81.33
2018-12-17T11:32:24.225Z,81.22
2018-12-17T11:33:55.776Z,81.67
2018-12-17T11:35:25.780Z,82.25
2018-12-17T11:36:55.888Z,80.19
2018-12-17T11:38:25.811Z,80.05
2018-12-17T11:39:55.895Z,79.23
2018-12-17T11:41:25.934Z,77.58
2018-12-17T11:42:56.020Z,77.90
2018-12-17T11:44:25.961Z,75.81
2018-12-17T11:45:57.111Z,74.82
2018-12-17T11:47:27.105Z,73.96
2018-12-17T11:48:57.140Z,74.33
2018-12-17T11:50:27.166Z,74.07
2018-12-17T11:51:57.120Z,75.10
2018-12-17T11:53:27.070Z,75.70
2018-12-17T11:54:56.984Z,76.02
2018-12-17T11:57:37.190Z,74.40
2018-12-17T11:59:07.116Z,75.28
2018-12-17T12:03:01.421Z,74.44
2018-12-17T12:04:55.823Z,75.73
2018-12-17T12:06:25.793Z,74.97
2018-12-17T12:07:55.963Z,76.27
2018-12-17T12:09:26.334Z,76.07
2018-12-17T12:10:56.883Z,76.87
2018-12-17T12:12:26.903Z,78.94
2018-12-17T12:13:56.863Z,79.20
2018-12-17T12:15:26.770Z,79.46
2018-12-17T12:16:56.685Z,78.58
2018-12-17T12:18:26.598Z,77.00
2018-12-17T12:19:56.491Z,78.28
2018-12-17T12:21:26.404Z,78.56
2018-12-17T12:22:56.451Z,76.12
2018-12-17T12:24:26.354Z,77.06
2018-12-17T12:25:56.386Z,76.58
2018-12-17T12:27:26.424Z,76.98
2018-12-17T12:28:56.387Z,78.30
2018-12-17T12:30:26.290Z,77.64
2018-12-17T12:31:56.357Z,77.78
2018-12-17T12:33:26.260Z,76.81
2018-12-17T12:34:56.389Z,77.03
2018-12-17T12:36:26.298Z,76.34
2018-12-17T12:40:21.208Z,74.34
2018-12-17T12:41:51.138Z,75.57
2018-12-17T12:43:21.086Z,73.73
2018-12-17T12:44:51.155Z,73.61
2018-12-17T12:46:21.214Z,73.30
2018-12-17T12:47:51.140Z,73.98
2018-12-17T12:49:21.114Z,75.30
2018-12-17T12:50:51.142Z,75.21
2018-12-17T12:52:21.099Z,74.17
2018-12-17T12:53:51.039Z,74.28
2018-12-17T12:55:21.085Z,74.88
2018-12-17T12:56:50.988Z,73.66
2018-12-17T12:58:20.897Z,74.54
2018-12-17T12:59:50.790Z,75.45
2018-12-17T13:01:20.696Z,74.29
2018-12-17T13:02:50.622Z,75.46
2018-12-17T13:04:20.578Z,75.76
2018-12-17T13:05:50.487Z,74.05
2018-12-17T13:07:20.390Z,74.14
2018-12-17T13:08:50.304Z,73.67
2018-12-17T13:10:28.228Z,74.37
2018-12-17T13:12:22.615Z,75.81
2018-12-17T13:13:52.603Z,76.13
2018-12-17T13:15:22.743Z,76.45
2018-12-17T13:16:52.775Z,76.19
2018-12-17T13:18:22.694Z,76.52
2018-12-17T13:19:52.648Z,75.84
2018-12-17T13:21:22.566Z,76.03
2018-12-17T13:22:52.476Z,76.96
2018-12-17T13:24:22.410Z,76.90
2018-12-17T13:26:27.674Z,78.43
2018-12-17T13:27:57.592Z,80.25
2018-12-17T13:34:15.812Z,80.55
2018-12-17T13:35:45.713Z,80.41
2018-12-17T13:37:18.800Z,80.69
2018-12-17T13:38:48.847Z,80.66
2018-12-17T13:40:18.743Z,80.54
2018-12-17T13:41:48.683Z,79.48
2018-12-17T13:43:18.575Z,79.26
2018-12-17T13:44:48.955Z,79.82
2018-12-17T13:46:18.862Z,79.84
2018-12-17T13:47:48.778Z,80.80
2018-12-17T13:49:18.814Z,80.83
2018-12-17T13:50:50.687Z,80.40
2018-12-17T13:52:26.610Z,80.72
2018-12-17T13:53:59.119Z,80.48
2018-12-17T13:55:29.031Z,79.91
2018-12-17T13:56:59.051Z,80.91
2018-12-17T13:58:28.952Z,81.05
2018-12-17T13:59:58.906Z,80.36
2018-12-17T14:01:28.808Z,80.01
2018-12-17T14:02:58.896Z,80.75
2018-12-17T14:04:28.841Z,80.73
2018-12-17T14:05:58.888Z,80.72
2018-12-17T14:07:28.799Z,81.06
2018-12-17T14:08:58.854Z,81.89
2018-12-17T14:10:34.677Z,80.87
2018-12-17T14:12:04.753Z,81.72
2018-12-17T14:13:34.908Z,81.35
2018-12-17T14:15:04.977Z,82.11
2018-12-17T14:16:40.678Z,80.89
2018-12-17T14:18:16.297Z,81.68
2018-12-17T14:19:52.253Z,81.88
2018-12-17T14:21:27.895Z,80.79
2018-12-17T14:22:57.912Z,81.22
2018-12-17T14:24:27.948Z,81.98
2018-12-17T14:25:57.883Z,82.21
2018-12-17T14:27:27.905Z,82.04
2018-12-17T14:28:57.817Z,82.55
2018-12-17T14:30:27.767Z,82.18
2018-12-17T14:31:57.794Z,82.69
2018-12-17T14:33:27.694Z,81.62
2018-12-17T14:34:57.719Z,82.42
2018-12-17T14:36:27.720Z,82.55
2018-12-17T14:38:01.859Z,83.65
2018-12-17T14:39:39.694Z,83.32
2018-12-17T14:41:09.807Z,82.25
2018-12-17T14:42:39.730Z,82.03
2018-12-17T14:44:15.396Z,82.03
2018-12-17T14:45:45.370Z,82.31
2018-12-17T14:47:15.348Z,81.74
2018-12-17T14:48:45.342Z,82.65
2018-12-17T14:50:17.062Z,83.01
2018-12-17T14:51:54.489Z,82.69
2018-12-17T14:53:24.563Z,83.35
2018-12-17T14:54:54.495Z,81.97
2018-12-17T14:56:24.431Z,82.18
2018-12-17T14:57:54.379Z,82.25
2018-12-17T14:59:24.778Z,82.40
2018-12-17T15:00:54.769Z,82.56
2018-12-17T15:02:24.761Z,83.25
2018-12-17T15:03:54.740Z,83.91
2018-12-17T15:05:24.884Z,82.94
2018-12-17T15:06:54.823Z,83.02
2018-12-17T15:08:24.736Z,83.78
2018-12-17T15:09:54.788Z,82.78
2018-12-17T15:11:24.743Z,83.53
2018-12-17T15:12:54.680Z,83.05
2018-12-17T15:14:24.623Z,83.26
2018-12-17T15:15:54.981Z,83.54
2018-12-17T15:17:25.067Z,84.36
2018-12-17T15:18:55.027Z,84.99
2018-12-17T15:20:25.025Z,85.66
2018-12-17T15:21:54.978Z,84.86
2018-12-17T15:23:25.150Z,85.11
2018-12-17T15:24:55.095Z,85.97
2018-12-17T15:26:25.096Z,84.61
2018-12-17T15:27:55.099Z,85.70
2018-12-17T15:29:25.178Z,84.28
2018-12-17T15:30:55.193Z,85.22
2018-12-17T15:32:25.312Z,85.69
2018-12-17T15:33:55.210Z,85.85
2018-12-17T15:35:25.156Z,85.79
2018-12-17T15:36:56.372Z,85.24
2018-12-17T15:38:26.266Z,84.48
2018-12-17T15:39:56.195Z,84.92
2018-12-17T15:41:26.094Z,84.09
2018-12-17T15:42:55.987Z,85.14
2018-12-17T15:44:26.130Z,84.65
2018-12-17T15:45:56.066Z,84.91
2018-12-17T15:47:25.975Z,85.03
2018-12-17T15:48:55.885Z,84.79
2018-12-17T15:50:25.925Z,83.54
2018-12-17T15:51:55.808Z,84.03
2018-12-17T15:53:25.700Z,84.73
2018-12-17T15:54:55.627Z,84.07
2018-12-17T15:56:25.623Z,84.17
2018-12-17T15:57:55.514Z,84.13
2018-12-17T15:59:25.532Z,84.88
2018-12-17T16:00:55.501Z,85.44
2018-12-17T16:02:25.414Z,86.00
2018-12-17T16:03:55.552Z,85.75
2018-12-17T16:05:25.474Z,86.58
2018-12-17T16:06:55.372Z,86.27
2018-12-17T16:08:47.922Z,86.00
2018-12-17T16:10:17.869Z,87.40
2018-12-17T16:11:47.767Z,87.81
2018-12-17T16:13:17.814Z,86.77
2018-12-17T16:14:48.645Z,87.44
2018-12-17T16:16:18.677Z,87.21
2018-12-17T16:17:48.568Z,86.14
2018-12-17T16:19:18.525Z,86.78
2018-12-17T16:20:49.569Z,86.11
2018-12-17T16:22:19.549Z,85.63
2018-12-17T16:23:49.474Z,86.65
2018-12-17T16:25:19.478Z,85.64
2018-12-17T16:26:50.227Z,85.66
2018-12-17T16:28:20.187Z,86.22
2018-12-17T16:29:50.174Z,85.95
2018-12-17T16:31:20.243Z,86.01
2018-12-17T16:32:50.139Z,85.15
2018-12-17T16:34:20.093Z,85.65
2018-12-17T16:35:50.007Z,85.58
2018-12-17T16:37:19.970Z,84.78
2018-12-17T16:38:50.192Z,84.74
2018-12-17T16:40:20.727Z,84.69
2018-12-17T16:41:51.010Z,84.00
2018-12-17T16:43:21.101Z,83.62
2018-12-17T16:44:51.028Z,84.04
2018-12-17T16:46:21.034Z,83.95
2018-12-17T16:47:51.038Z,85.32
2018-12-17T16:49:21.167Z,84.36
2018-12-17T16:50:51.411Z,84.66
2018-12-17T16:52:21.354Z,84.95
2018-12-17T16:53:51.335Z,84.47
2018-12-17T16:55:21.650Z,84.55
2018-12-17T16:56:51.664Z,83.21
2018-12-17T16:58:29.651Z,83.56
2018-12-17T16:59:59.823Z,84.60
2018-12-17T17:01:29.830Z,83.91
2018-12-17T17:02:59.748Z,84.67
2018-12-17T17:04:29.780Z,84.45
2018-12-17T17:05:59.714Z,84.80
2018-12-17T17:07:29.619Z,84.74
2018-12-17T17:08:59.525Z,84.24
2018-12-17T17:10:29.651Z,85.12
2018-12-17T17:11:59.707Z,84.48
2018-12-17T17:13:29.754Z,84.00
2018-12-17T17:15:10.099Z,84.72
2018-12-17T17:16:40.246Z,85.69
2018-12-17T17:18:10.299Z,85.49
2018-12-17T17:19:40.470Z,84.78
2018-12-17T17:21:10.507Z,84.99
2018-12-17T17:22:40.512Z,85.76
2018-12-17T17:24:10.418Z,84.25
2018-12-17T17:25:40.482Z,85.74
2018-12-17T17:27:10.380Z,85.80
2018-12-17T17:28:40.307Z,85.06
2018-12-17T17:30:10.626Z,84.99
2018-12-17T17:31:40.835Z,84.28
2018-12-17T17:33:10.779Z,86.11
2018-12-17T17:34:48.409Z,85.54
2018-12-17T17:36:18.467Z,86.21
2018-12-17T17:37:48.343Z,85.87
2018-12-17T17:39:18.330Z,85.51
2018-12-17T17:40:48.552Z,85.25
2018-12-17T17:42:32.187Z,85.54
2018-12-17T17:44:02.404Z,84.92
2018-12-17T17:45:32.365Z,86.59
2018-12-17T17:47:02.391Z,86.54
2018-12-17T17:48:32.287Z,86.95
2018-12-17T17:50:03.067Z,87.43
2018-12-17T17:51:33.483Z,86.43
2018-12-17T17:53:03.506Z,86.42
2018-12-17T17:54:33.656Z,86.20
2018-12-17T17:56:03.687Z,86.90
2018-12-17T17:57:33.671Z,87.38
2018-12-17T17:59:03.757Z,86.45
2018-12-17T18:00:33.733Z,86.46
2018-12-17T18:02:03.914Z,85.69
2018-12-17T18:03:34.435Z,85.73
2018-12-17T18:05:05.053Z,86.30
2018-12-17T18:06:35.421Z,86.48
2018-12-17T18:08:05.408Z,87.10
2018-12-17T18:09:35.442Z,88.12
2018-12-17T18:11:05.449Z,87.72
2018-12-17T18:12:35.442Z,88.21
2018-12-17T18:14:05.723Z,86.71
2018-12-17T18:15:35.798Z,85.71
2018-12-17T18:17:32.983Z,86.32
2018-12-17T18:19:03.309Z,86.40
2018-12-17T18:20:33.247Z,85.26
2018-12-17T18:22:03.435Z,85.30
2018-12-17T18:23:34.025Z,85.01
2018-12-17T18:25:04.422Z,85.58
2018-12-17T18:31:43.883Z,86.71
2018-12-17T18:33:13.800Z,85.84
2018-12-17T18:34:44.607Z,87.17
2018-12-17T18:36:15.525Z,87.58
2018-12-17T18:37:46.007Z,86.78
2018-12-17T18:39:16.635Z,86.46
2018-12-17T18:40:47.365Z,85.15
2018-12-17T18:42:18.221Z,85.98
2018-12-17T18:43:50.022Z,86.12
2018-12-17T18:45:20.245Z,85.22
2018-12-17T18:46:50.298Z,86.66
2018-12-17T18:48:20.455Z,85.99
2018-12-17T18:49:50.583Z,85.83
2018-12-17T18:51:20.799Z,85.02
2018-12-17T18:52:50.750Z,85.76
2018-12-17T18:54:20.982Z,85.74
2018-12-17T18:55:51.881Z,85.86
2018-12-17T18:57:22.264Z,86.12
2018-12-17T18:58:52.330Z,86.40
2018-12-17T19:00:22.283Z,87.15
2018-12-17T19:01:52.332Z,87.01
2018-12-17T19:03:22.682Z,86.34
2018-12-17T19:04:52.858Z,86.74
2018-12-17T19:06:23.310Z,87.51
2018-12-17T19:07:53.611Z,87.81
2018-12-17T19:09:24.522Z,87.70
2018-12-17T19:10:54.689Z,88.82
2018-12-17T19:12:25.235Z,87.99
2018-12-17T19:13:55.778Z,89.90
2018-12-17T19:16:15.556Z,88.73
2018-12-17T19:17:45.913Z,88.37
2018-12-17T19:19:16.138Z,87.55
2018-12-17T19:20:46.715Z,87.56
2018-12-17T19:22:17.374Z,88.15
2018-12-17T19:23:47.671Z,88.38
2018-12-17T19:25:18.444Z,86.74
2018-12-17T19:26:48.729Z,87.94
2018-12-17T19:28:19.501Z,88.74
2018-12-17T19:29:49.989Z,88.17
2018-12-17T19:31:20.256Z,89.95
2018-12-17T19:32:50.383Z,90.18
2018-12-17T19:34:20.488Z,90.01
2018-12-17T19:35:51.100Z,88.99
2018-12-17T19:37:21.582Z,88.42
2018-12-17T19:38:51.476Z,89.13
2018-12-17T19:40:21.537Z,88.70
2018-12-17T19:41:51.815Z,88.82
2018-12-17T19:43:22.029Z,87.97
2018-12-17T19:45:33.575Z,86.99
2018-12-17T19:47:03.639Z,88.05
2018-12-17T19:48:33.778Z,87.33
2018-12-17T19:50:04.474Z,87.78
2018-12-17T19:51:34.635Z,87.07
2018-12-17T19:53:04.854Z,87.10